TimeCST,TemperatureF,Dew PointF,Humidity,Sea Level PressureIn,VisibilityMPH,Wind Direction,Wind SpeedMPH,Gust SpeedMPH,PrecipitationIn,Events,Conditions,WindDirDegrees,DateUTC
12:53 AM,26.1,24.1,92,30.35,10.0,Calm,Calm,-,N/A,,Clear,0,2011-12-26 06:53:00
1:53 AM,25.0,24.1,96,30.34,10.0,Calm,Calm,-,N/A,,Clear,0,2011-12-26 07:53:00
2:53 AM,21.9,19.9,92,30.31,10.0,Calm,Calm,-,N/A,,Clear,0,2011-12-26 08:53:00
3:53 AM,23.0,21.9,96,30.27,10.0,East,4.6,-,N/A,,Clear,100,2011-12-26 09:53:00
4:53 AM,24.1,21.9,91,30.25,10.0,Calm,Calm,-,N/A,,Clear,0,2011-12-26 10:53:00
5:53 AM,23.0,21.9,96,30.25,10.0,Calm,Calm,-,N/A,,Clear,0,2011-12-26 11:53:00
6:53 AM,24.1,21.9,91,30.24,10.0,Calm,Calm,-,N/A,,Clear,0,2011-12-26 12:53:00
7:53 AM,27.0,25.0,92,30.24,10.0,Calm,Calm,-,N/A,,Partly Cloudy,0,2011-12-26 13:53:00
8:53 AM,30.0,27.0,88,30.21,10.0,Calm,Calm,-,N/A,,Mostly Cloudy,0,2011-12-26 14:53:00
9:53 AM,34.0,30.0,85,30.19,10.0,Calm,Calm,-,0.00,,Mostly Cloudy,0,2011-12-26 15:53:00
10:53 AM,39.9,32.0,73,30.17,10.0,SW,4.6,-,N/A,,Overcast,220,2011-12-26 16:53:00
11:53 AM,45.0,32.0,60,30.12,10.0,SSW,8.1,-,N/A,,Overcast,200,2011-12-26 17:53:00
12:53 PM,48.0,30.9,52,30.05,10.0,SW,9.2,-,N/A,,Overcast,220,2011-12-26 18:53:00
1:53 PM,50.0,32.0,50,30.03,10.0,SW,12.7,-,N/A,,Overcast,230,2011-12-26 19:53:00
2:53 PM,50.0,33.1,52,30.02,10.0,SSW,5.8,-,N/A,,Overcast,210,2011-12-26 20:53:00
3:53 PM,46.9,32.0,56,30.01,10.0,WNW,5.8,-,N/A,,Overcast,290,2011-12-26 21:53:00
4:53 PM,46.0,32.0,58,30.03,10.0,WNW,4.6,-,N/A,,Overcast,290,2011-12-26 22:53:00
5:53 PM,42.1,33.1,70,30.03,10.0,Calm,Calm,-,N/A,,Overcast,0,2011-12-26 23:53:00
6:53 PM,41.0,33.1,73,29.99,10.0,Variable,3.5,-,N/A,,Overcast,0,2011-12-27 00:53:00
7:53 PM,37.9,32.0,79,30.00,10.0,Calm,Calm,-,N/A,,Scattered Clouds,0,2011-12-27 01:53:00
8:53 PM,34.0,30.9,89,29.99,10.0,Calm,Calm,-,N/A,,Clear,0,2011-12-27 02:53:00
9:53 PM,36.0,32.0,86,29.97,10.0,WNW,8.1,-,N/A,,Clear,290,2011-12-27 03:53:00
10:53 PM,35.1,32.0,89,29.96,10.0,West,9.2,-,N/A,,Clear,280,2011-12-27 04:53:00
11:53 PM,34.0,30.9,89,29.95,10.0,West,3.5,-,N/A,,Clear,280,2011-12-27 05:53:00